createdAt,value
2022-12-01T00:00:10.069Z,95656.81
2022-12-01T00:03:54.874Z,95652.56
2022-12-01T00:07:37.685Z,95646.03
2022-12-01T00:11:19.433Z,95636.63
2022-12-01T00:15:02.172Z,95634.03
2022-12-01T00:18:45.353Z,95634.31
2022-12-01T00:22:29.432Z,95626.81
2022-12-01T00:26:14.707Z,95633.28
2022-12-01T00:29:57.425Z,95621.84
2022-12-01T00:33:40.678Z,95623.09
2022-12-01T00:37:23.688Z,95619.53
2022-12-01T00:41:07.841Z,95623.19
2022-12-01T00:44:50.487Z,95629.63
2022-12-01T00:48:34.952Z,95628.28
2022-12-01T00:52:18.426Z,95631.84
2022-12-01T00:56:01.174Z,95626.94
2022-12-01T00:59:45.421Z,95623.69
2022-12-01T01:03:28.465Z,95627.09
2022-12-01T01:07:11.173Z,95634.06
2022-12-01T01:10:53.824Z,95641.06
2022-12-01T01:14:36.717Z,95635.72
2022-12-01T01:18:20.773Z,95637.34
2022-12-01T01:22:03.473Z,95645.50
2022-12-01T01:25:46.263Z,95636.44
2022-12-01T01:29:29.157Z,95636.44
2022-12-01T01:33:11.886Z,95631.84
2022-12-01T01:36:55.994Z,95627.78
2022-12-01T01:40:44.083Z,95632.44
2022-12-01T01:44:50.095Z,95635.72
2022-12-01T01:48:33.888Z,95640.53
2022-12-01T01:52:18.707Z,95634.66
2022-12-01T01:56:03.128Z,95639.03
2022-12-01T01:59:48.611Z,95631.19
2022-12-01T02:03:32.357Z,95629.25
2022-12-01T02:07:19.593Z,95638.53
2022-12-01T02:11:28.821Z,95621.31
2022-12-01T02:15:20.337Z,95618.03
2022-12-01T02:19:12.706Z,95619.97
2022-12-01T02:23:11.451Z,95623.25
2022-12-01T02:27:01.140Z,95625.03
2022-12-01T02:30:47.020Z,95619.97
2022-12-01T02:34:34.327Z,95618.94
2022-12-01T02:38:23.046Z,95613.97
2022-12-01T02:42:07.786Z,95617.22
2022-12-01T02:45:53.348Z,95613.97
2022-12-01T02:49:38.390Z,95615.38
2022-12-01T02:53:21.161Z,95599.78
2022-12-01T02:57:04.187Z,95608.25
2022-12-01T03:00:57.798Z,95601.56
2022-12-01T03:04:47.708Z,95606.63
2022-12-01T03:08:34.067Z,95606.63
2022-12-01T03:12:23.452Z,95606.91
2022-12-01T03:16:09.474Z,95605.94
2022-12-01T03:19:55.820Z,95614.41
2022-12-01T03:23:42.374Z,95610.84
2022-12-01T03:27:30.915Z,95593.56
2022-12-01T03:31:18.020Z,95589.56
2022-12-01T03:35:04.796Z,95595.88
2022-12-01T03:38:52.662Z,95599.94
2022-12-01T03:42:38.515Z,95611.97
2022-12-01T03:46:26.368Z,95604.47
2022-12-01T03:50:14.142Z,95607.88
2022-12-01T03:54:01.687Z,95609.38
2022-12-01T03:57:46.781Z,95613.31
2022-12-01T04:01:33.547Z,95602.91
2022-12-01T04:05:19.904Z,95607.81
2022-12-01T04:09:05.590Z,95613.00
2022-12-01T04:12:48.328Z,95609.75
2022-12-01T04:16:32.458Z,95613.00
2022-12-01T04:20:16.392Z,95618.19
2022-12-01T04:24:02.025Z,95612.34
2022-12-01T04:27:47.376Z,95609.75
2022-12-01T04:31:32.687Z,95615.31
2022-12-01T04:35:16.964Z,95609.59
2022-12-01T04:38:59.713Z,95605.22
2022-12-01T04:42:42.476Z,95605.88
2022-12-01T04:46:25.922Z,95601.94
2022-12-01T04:50:12.556Z,95603.56
2022-12-01T04:53:56.782Z,95606.19
2022-12-01T04:57:41.447Z,95610.41
2022-12-01T05:01:24.520Z,95606.84
2022-12-01T05:05:08.281Z,95614.34
2022-12-01T05:08:51.703Z,95610.25
2022-12-01T05:12:38.803Z,95614.63
2022-12-01T05:16:23.083Z,95624.06
2022-12-01T05:20:25.350Z,95616.94
2022-12-01T05:24:09.141Z,95617.91
2022-12-01T05:27:53.216Z,95614.34
2022-12-01T05:31:36.338Z,95621.97
2022-12-01T05:35:19.251Z,95621.97
2022-12-01T05:39:01.936Z,95617.59
2022-12-01T05:42:44.654Z,95611.59
2022-12-01T05:46:28.749Z,95614.84
2022-12-01T05:50:11.808Z,95620.03
2022-12-01T05:53:55.094Z,95617.31
2022-12-01T05:57:40.466Z,95625.78
2022-12-01T06:01:26.000Z,95615.75
2022-12-01T06:05:10.693Z,95621.63
2022-12-01T06:08:53.509Z,95626.81
2022-12-01T06:12:36.298Z,95631.06
2022-12-01T06:16:21.794Z,95621.34
2022-12-01T06:20:05.269Z,95620.66
2022-12-01T06:23:49.456Z,95630.09
2022-12-01T06:27:35.193Z,95625.94
2022-12-01T06:31:19.092Z,95631.41
2022-12-01T06:35:01.892Z,95638.25
2022-12-01T06:38:44.616Z,95641.50
2022-12-01T06:42:33.608Z,95647.38
2022-12-01T06:46:16.415Z,95644.78
2022-12-01T06:50:02.201Z,95646.94
2022-12-01T06:53:44.960Z,95650.50
2022-12-01T06:57:27.756Z,95647.44
2022-12-01T07:01:13.375Z,95645.88
2022-12-01T07:04:56.278Z,95649.81
2022-12-01T07:08:39.031Z,95651.44
2022-12-01T07:12:23.456Z,95644.75
2022-12-01T07:16:07.087Z,95651.75
2022-12-01T07:19:51.354Z,95649.81
2022-12-01T07:23:34.591Z,95645.13
2022-12-01T07:27:17.303Z,95654.53
2022-12-01T07:31:04.466Z,95651.78
2022-12-01T07:34:47.205Z,95654.69
2022-12-01T07:38:31.770Z,95666.38
2022-12-01T07:42:14.531Z,95667.13
2022-12-01T07:45:57.217Z,95669.53
2022-12-01T07:49:39.939Z,95672.69
2022-12-01T07:53:22.702Z,95667.28
2022-12-01T07:57:06.835Z,95669.00
2022-12-01T08:00:49.621Z,95679.53
2022-12-01T08:04:32.378Z,95662.75
2022-12-01T08:08:15.143Z,95671.97
2022-12-01T08:11:57.928Z,95674.22
2022-12-01T08:15:44.582Z,95674.69
2022-12-01T08:19:29.329Z,95685.25
2022-12-01T08:23:12.308Z,95681.81
2022-12-01T08:26:55.373Z,95688.81
2022-12-01T08:30:38.121Z,95675.66
2022-12-01T08:34:23.614Z,95683.31
2022-12-01T08:38:06.447Z,95676.47
2022-12-01T08:41:49.255Z,95687.84
2022-12-01T08:45:31.986Z,95685.09
2022-12-01T08:49:14.943Z,95684.13
2022-12-01T08:53:00.384Z,95686.56
2022-12-01T08:56:47.038Z,95678.31
2022-12-01T09:00:32.495Z,95682.03
2022-12-01T09:04:15.232Z,95685.91
2022-12-01T09:08:13.652Z,95685.94
2022-12-01T09:11:57.510Z,95683.50
2022-12-01T09:15:40.269Z,95680.66
2022-12-01T09:19:25.108Z,95689.16
2022-12-01T09:23:09.429Z,95688.19
2022-12-01T09:26:56.191Z,95690.81
2022-12-01T09:30:41.800Z,95687.22
2022-12-01T09:34:26.904Z,95678.47
2022-12-01T09:38:12.123Z,95689.22
2022-12-01T09:41:57.293Z,95688.25
2022-12-01T09:45:47.412Z,95685.66
2022-12-01T09:49:41.049Z,95685.34
2022-12-01T09:53:30.063Z,95678.81
2022-12-01T09:57:17.768Z,95673.97
2022-12-01T10:01:01.044Z,95673.00
2022-12-01T10:04:49.338Z,95679.53
2022-12-01T10:08:37.179Z,95662.44
2022-12-01T10:12:22.541Z,95661.47
2022-12-01T10:16:10.113Z,95652.19
2022-12-01T10:19:58.979Z,95660.81
2022-12-01T10:24:01.910Z,95653.81
2022-12-01T10:27:52.126Z,95644.72
2022-12-01T10:31:37.133Z,95647.38
2022-12-01T10:35:21.990Z,95654.44
2022-12-01T10:39:07.788Z,95650.69
2022-12-01T10:42:52.576Z,95653.66
2022-12-01T10:46:41.902Z,95635.91
2022-12-01T10:50:28.224Z,95636.06
2022-12-01T10:54:13.565Z,95625.00
2022-12-01T10:57:59.272Z,95632.16
2022-12-01T11:01:48.281Z,95639.47
2022-12-01T11:05:39.912Z,95633.25
2022-12-01T11:09:26.703Z,95626.53
2022-12-01T11:13:22.390Z,95621.06
2022-12-01T11:17:27.543Z,95617.47
2022-12-01T11:21:13.960Z,95622.38
2022-12-01T11:25:03.655Z,95621.97
2022-12-01T11:28:53.713Z,95621.28
2022-12-01T11:32:38.462Z,95614.16
2022-12-01T11:36:29.175Z,95611.63
2022-12-01T11:40:20.140Z,95610.03
2022-12-01T11:44:06.396Z,95614.59
2022-12-01T11:48:02.055Z,95600.28
2022-12-01T11:51:44.993Z,95599.66
2022-12-01T11:55:30.455Z,95598.03
2022-12-01T11:59:19.971Z,95599.97
2022-12-01T12:03:15.320Z,95601.59
2022-12-01T12:07:04.472Z,95601.59
2022-12-01T12:10:52.641Z,95600.78
2022-12-01T12:14:59.060Z,95594.44
2022-12-01T12:18:52.844Z,95601.78
2022-12-01T12:22:43.741Z,95602.44
2022-12-01T12:26:29.455Z,95595.78
2022-12-01T12:30:21.700Z,95594.13
2022-12-01T12:34:14.842Z,95585.34
2022-12-01T12:38:04.421Z,95589.91
2022-12-01T12:41:51.689Z,95580.34
2022-12-01T12:45:42.601Z,95585.38
2022-12-01T12:49:34.044Z,95576.94
2022-12-01T12:53:20.512Z,95584.78
2022-12-01T12:57:07.729Z,95589.84
2022-12-01T13:00:57.220Z,95576.97
2022-12-01T13:04:49.842Z,95578.25
2022-12-01T13:08:36.174Z,95579.22
2022-12-01T13:12:27.662Z,95586.88
2022-12-01T13:16:16.932Z,95581.16
2022-12-01T13:19:59.915Z,95584.41
2022-12-01T13:23:51.070Z,95590.28
2022-12-01T13:27:37.105Z,95582.78
2022-12-01T13:31:21.167Z,95585.38
2022-12-01T13:35:06.506Z,95585.38
2022-12-01T13:38:58.829Z,95585.03
2022-12-01T13:42:43.024Z,95579.47
2022-12-01T13:46:27.464Z,95583.38
2022-12-01T13:50:40.188Z,95579.97
2022-12-01T13:54:30.321Z,95576.53
2022-12-01T13:58:25.019Z,95585.13
2022-12-01T14:02:16.252Z,95574.50
2022-12-01T14:06:09.173Z,95580.03
2022-12-01T14:09:53.588Z,95577.72
2022-12-01T14:13:48.120Z,95575.13
2022-12-01T14:17:33.186Z,95573.00
2022-12-01T14:21:16.091Z,95576.88
2022-12-01T14:24:58.964Z,95571.88
2022-12-01T14:29:18.476Z,95583.72
2022-12-01T14:33:33.485Z,95588.72
2022-12-01T14:37:19.157Z,95601.06
2022-12-01T14:41:02.175Z,95600.09
2022-12-01T14:44:48.939Z,95595.06
2022-12-01T14:48:37.295Z,95589.53
2022-12-01T14:52:31.096Z,95593.63
2022-12-01T14:56:15.884Z,95592.00
2022-12-01T15:00:13.487Z,95602.09
2022-12-01T15:03:58.974Z,95593.31
2022-12-01T15:07:45.182Z,95596.56
2022-12-01T15:11:30.151Z,95586.16
2022-12-01T15:15:22.276Z,95589.72
2022-12-01T15:19:23.699Z,95592.34
2022-12-01T15:23:15.155Z,95594.13
2022-12-01T15:27:03.462Z,95595.19
2022-12-01T15:30:48.582Z,95597.22
2022-12-01T15:34:35.242Z,95595.31
2022-12-01T15:38:22.604Z,95596.19
2022-12-01T15:42:08.581Z,95596.06
2022-12-01T15:45:58.123Z,95602.09
2022-12-01T15:49:50.115Z,95604.53
2022-12-01T15:53:36.425Z,95595.91
2022-12-01T15:57:21.751Z,95597.53
2022-12-01T16:01:07.395Z,95605.50
2022-12-01T16:04:50.852Z,95591.88
2022-12-01T16:08:35.343Z,95583.91
2022-12-01T16:12:23.562Z,95597.06
2022-12-01T16:16:28.533Z,95603.09
2022-12-01T16:20:26.751Z,95593.41
2022-12-01T16:24:18.534Z,95592.47
2022-12-01T16:28:01.541Z,95599.28
2022-12-01T16:32:12.738Z,95597.03
2022-12-01T16:35:50.099Z,95592.50
2022-12-01T16:39:34.191Z,95594.16
2022-12-01T16:43:18.438Z,95589.59
2022-12-01T16:47:02.923Z,95587.34
2022-12-01T16:50:45.688Z,95593.69
2022-12-01T16:54:28.411Z,95603.44
2022-12-01T16:58:12.482Z,95599.19
2022-12-01T17:01:55.256Z,95589.25
2022-12-01T17:05:38.248Z,95598.06
2022-12-01T17:09:22.634Z,95593.00
2022-12-01T17:13:06.986Z,95592.50
2022-12-01T17:16:52.963Z,95587.63
2022-12-01T17:20:35.691Z,95593.78
2022-12-01T17:24:19.326Z,95590.88
2022-12-01T17:28:02.300Z,95583.72
2022-12-01T17:31:45.092Z,95587.31
2022-12-01T17:35:29.194Z,95592.19
2022-12-01T17:39:11.950Z,95586.81
2022-12-01T17:42:54.679Z,95596.41
2022-12-01T17:46:38.386Z,95581.94
2022-12-01T17:50:21.346Z,95591.41
2022-12-01T17:54:05.738Z,95592.88
2022-12-01T17:57:48.756Z,95592.59
2022-12-01T18:01:31.503Z,95584.09
2022-12-01T18:05:14.342Z,95599.44
2022-12-01T18:08:57.568Z,95584.91
2022-12-01T18:12:41.906Z,95590.31
2022-12-01T18:16:26.533Z,95597.81
2022-12-01T18:20:10.624Z,95595.50
2022-12-01T18:23:55.639Z,95597.44
2022-12-01T18:27:38.329Z,95609.31
2022-12-01T18:31:22.515Z,95601.97
2022-12-01T18:35:06.068Z,95598.22
2022-12-01T18:38:49.430Z,95609.41
2022-12-01T18:42:32.793Z,95598.16
2022-12-01T18:46:22.001Z,95604.66
2022-12-01T18:50:08.076Z,95609.06
2022-12-01T18:53:54.504Z,95601.25
2022-12-01T18:57:37.433Z,95603.19
2022-12-01T19:01:23.489Z,95589.81
2022-12-01T19:05:06.828Z,95602.47
2022-12-01T19:08:49.534Z,95610.91
2022-12-01T19:12:36.382Z,95607.63
2022-12-01T19:16:24.021Z,95602.59
2022-12-01T19:20:09.477Z,95600.97
2022-12-01T19:23:55.707Z,95611.88
2022-12-01T19:27:38.601Z,95609.25
2022-12-01T19:31:24.891Z,95595.28
2022-12-01T19:35:08.102Z,95610.75
2022-12-01T19:38:51.265Z,95607.31
2022-12-01T19:42:34.001Z,95615.13
2022-12-01T19:46:18.906Z,95611.56
2022-12-01T19:50:03.264Z,95603.09
2022-12-01T19:53:46.067Z,95606.66
2022-12-01T19:57:28.810Z,95613.66
2022-12-01T20:01:13.496Z,95601.16
2022-12-01T20:04:58.258Z,95612.88
2022-12-01T20:08:42.767Z,95601.81
2022-12-01T20:12:25.775Z,95600.84
2022-12-01T20:16:11.167Z,95595.31
2022-12-01T20:19:53.951Z,95600.53
2022-12-01T20:23:37.449Z,95597.63
2022-12-01T20:27:21.562Z,95603.19
2022-12-01T20:31:04.555Z,95607.72
2022-12-01T20:34:47.514Z,95610.34
2022-12-01T20:38:30.444Z,95610.03
2022-12-01T20:42:13.116Z,95614.59
2022-12-01T20:45:57.655Z,95607.75
2022-12-01T20:49:40.424Z,95610.38
2022-12-01T20:53:23.465Z,95609.72
2022-12-01T20:57:06.277Z,95602.88
2022-12-01T21:00:49.158Z,95603.53
2022-12-01T21:04:33.200Z,95599.28
2022-12-01T21:08:16.153Z,95597.81
2022-12-01T21:12:17.717Z,95593.09
2022-12-01T21:16:05.857Z,95599.25
2022-12-01T21:19:56.532Z,95595.63
2022-12-01T21:23:39.233Z,95606.97
2022-12-01T21:27:22.019Z,95587.47
2022-12-01T21:31:12.357Z,95585.53
2022-12-01T21:35:01.794Z,95593.84
2022-12-01T21:38:44.987Z,95589.28
2022-12-01T21:42:29.087Z,95583.28
2022-12-01T21:46:15.763Z,95590.13
2022-12-01T21:50:01.383Z,95585.72
2022-12-01T21:53:44.133Z,95600.53
2022-12-01T21:57:42.249Z,95583.28
2022-12-01T22:01:28.708Z,95589.44
2022-12-01T22:05:25.919Z,95592.06
2022-12-01T22:09:15.706Z,95590.44
2022-12-01T22:12:58.489Z,95581.31
2022-12-01T22:16:42.695Z,95578.03
2022-12-01T22:20:26.930Z,95570.56
2022-12-01T22:24:21.828Z,95573.81
2022-12-01T22:28:11.497Z,95582.28
2022-12-01T22:32:06.000Z,95577.38
2022-12-01T22:35:51.407Z,95580.97
2022-12-01T22:39:34.381Z,95573.81
2022-12-01T22:43:36.276Z,95562.28
2022-12-01T22:47:19.075Z,95560.66
2022-12-01T22:51:16.949Z,95561.31
2022-12-01T22:54:59.625Z,95553.50
2022-12-01T22:58:42.508Z,95550.72
2022-12-01T23:02:26.424Z,95555.13
2022-12-01T23:06:56.050Z,95547.66
2022-12-01T23:10:41.558Z,95560.50
2022-12-01T23:14:24.883Z,95546.56
2022-12-01T23:18:13.387Z,95551.75
2022-12-01T23:21:57.491Z,95544.91
2022-12-01T23:25:41.110Z,95538.88
2022-12-01T23:29:24.051Z,95543.28
2022-12-01T23:33:18.207Z,95535.47
2022-12-01T23:37:02.497Z,95532.03
2022-12-01T23:40:45.374Z,95526.84
2022-12-01T23:44:38.596Z,95527.16
2022-12-01T23:48:23.277Z,95529.25
2022-12-01T23:52:12.214Z,95520.16
2022-12-01T23:55:55.229Z,95516.22
2022-12-01T23:59:38.743Z,95509.06
